Time;durP1;ratioP1;P1;durP2;ratioP2;P2;SDS_P1;SDS_P2;PMS_P1;PMS_P2;Temp;Humidity;BMP_temperature;BMP_pressure;BME280_temperature;BME280_humidity;BME280_pressure;Samples;Min_cycle;Max_cycle;Signal;HPM_P1;HPM_P2
2021/10/04 00:01:39;;;;;;;0.82;0.65;;;;;;;11.61;94.80;99856.00;5055535;28;20044;-70
2021/10/04 00:04:06;;;;;;;1.50;0.47;;;;;;;11.58;94.60;99844.69;5055499;28;20049;-70
2021/10/04 00:06:33;;;;;;;2.72;0.63;;;;;;;11.60;94.93;99850.81;5036620;28;20045;-70
2021/10/04 00:09:00;;;;;;;3.88;0.50;;;;;;;11.63;94.10;99853.25;5034489;28;20033;-70
2021/10/04 00:11:26;;;;;;;3.17;0.80;;;;;;;11.60;94.40;99854.31;5034126;28;20308;-70
2021/10/04 00:13:53;;;;;;;2.53;0.70;;;;;;;11.54;94.87;99855.59;5018133;28;20478;-70
2021/10/04 00:16:20;;;;;;;2.83;0.45;;;;;;;11.54;94.96;99862.75;5034308;28;20129;-70
2021/10/04 00:18:47;;;;;;;3.65;0.63;;;;;;;11.54;94.97;99860.94;5035357;28;20140;-69
2021/10/04 00:21:14;;;;;;;1.60;0.90;;;;;;;11.55;94.53;99861.78;5035354;28;20049;-70
2021/10/04 00:23:41;;;;;;;3.42;0.60;;;;;;;11.54;94.89;99858.28;5035341;28;20041;-70
2021/10/04 00:26:09;;;;;;;2.15;0.57;;;;;;;11.48;95.43;99861.38;5017910;28;20045;-69
2021/10/04 00:28:35;;;;;;;2.00;0.73;;;;;;;11.48;94.44;99856.03;5035422;28;20041;-70
2021/10/04 00:31:02;;;;;;;3.17;0.82;;;;;;;11.55;94.33;99861.78;5034049;28;20042;-70
2021/10/04 00:33:29;;;;;;;1.40;0.73;;;;;;;11.55;94.10;99862.66;5034058;28;20045;-69
2021/10/04 00:35:56;;;;;;;4.07;0.85;;;;;;;11.53;94.56;99872.59;5051618;28;20123;-70
2021/10/04 00:38:24;;;;;;;3.42;0.80;;;;;;;11.54;94.03;99870.78;5070318;28;20353;-70
2021/10/04 00:40:51;;;;;;;2.38;0.70;;;;;;;11.52;93.94;99878.91;5053801;28;20052;-70
2021/10/04 00:43:20;;;;;;;3.05;0.65;;;;;;;11.58;93.23;99882.97;5053719;28;20049;-70
2021/10/04 00:45:48;;;;;;;6.10;0.82;;;;;;;11.57;93.84;99881.28;5054923;28;20041;-70
2021/10/04 00:48:16;;;;;;;1.88;0.80;;;;;;;11.57;93.90;99875.06;5054715;28;20345;-70
2021/10/04 00:50:44;;;;;;;2.85;0.73;;;;;;;11.53;94.65;99872.59;5054770;28;20060;-69
2021/10/04 00:53:11;;;;;;;2.45;0.70;;;;;;;11.57;93.45;99875.06;5054779;28;20126;-71
2021/10/04 00:55:39;;;;;;;4.22;0.90;;;;;;;11.55;94.31;99878.69;5054716;28;20048;-70
2021/10/04 00:58:05;;;;;;;3.42;0.73;;;;;;;11.54;94.15;99877.00;5054670;28;20045;-71
2021/10/04 01:00:33;;;;;;;1.30;0.57;;;;;;;11.53;94.16;99864.59;5054588;28;20075;-69
2021/10/04 01:03:00;;;;;;;2.45;0.60;;;;;;;11.56;94.10;99868.88;5053729;28;20433;-71
2021/10/04 01:05:31;;;;;;;;;;;;;;;11.52;94.13;99862.88;5050003;28;20038;-71
2021/10/04 01:07:58;;;;;;;1.15;0.47;;;;;;;11.53;94.02;99861.06;5034745;28;19932;-69
2021/10/04 01:10:26;;;;;;;2.65;0.80;;;;;;;11.50;94.03;99863.94;5033539;28;20105;-69
2021/10/04 01:12:53;;;;;;;2.10;0.70;;;;;;;11.50;93.84;99870.13;5034702;28;20443;-70
2021/10/04 01:15:22;;;;;;;2.80;0.70;;;;;;;11.48;93.99;99872.06;5033601;28;20049;-69
2021/10/04 01:17:49;;;;;;;4.63;0.73;;;;;;;11.49;95.04;99878.28;5034736;28;20068;-69
2021/10/04 01:20:26;;;;;;;3.10;0.73;;;;;;;11.49;94.76;99873.78;5037843;28;20041;-69
2021/10/04 01:22:54;;;;;;;2.35;0.57;;;;;;;11.54;93.97;99882.34;5038517;28;20049;-71
2021/10/04 01:25:23;;;;;;;3.03;1.42;;;;;;;11.49;94.38;99871.09;5038597;28;20487;-71
2021/10/04 01:27:50;;;;;;;2.67;0.68;;;;;;;11.46;95.06;99871.31;5038334;28;20390;-69
2021/10/04 01:30:20;;;;;;;2.67;0.70;;;;;;;11.48;95.17;99869.41;5037482;28;20045;-69
2021/10/04 01:32:48;;;;;;;2.53;0.63;;;;;;;11.43;94.64;99860.00;5038334;28;20111;-70
2021/10/04 01:35:16;;;;;;;2.33;0.60;;;;;;;11.49;94.70;99875.59;5064989;28;20045;-70
2021/10/04 01:37:43;;;;;;;2.33;1.10;;;;;;;11.53;95.01;99883.31;5056865;28;20091;-70
2021/10/04 01:40:12;;;;;;;2.17;0.73;;;;;;;11.47;95.07;99882.84;5057117;28;20037;-71
2021/10/04 01:42:39;;;;;;;2.80;0.70;;;;;;;11.46;95.17;99882.03;5058032;28;20045;-70
2021/10/04 01:45:10;;;;;;;1.30;0.75;;;;;;;11.44;94.53;99881.25;5058296;28;20037;-69
2021/10/04 01:47:37;;;;;;;7.32;0.63;;;;;;;11.49;94.91;99875.59;5058619;28;20056;-69
2021/10/04 01:50:06;;;;;;;2.65;0.60;;;;;;;11.47;95.32;99880.19;5058507;28;20086;-70
2021/10/04 01:52:33;;;;;;;1.08;0.60;;;;;;;11.47;95.39;99880.19;5058199;28;20049;-69
2021/10/04 01:55:00;;;;;;;3.63;0.80;;;;;;;11.43;95.50;99892.91;5058027;28;20040;-71
2021/10/04 01:57:28;;;;;;;2.88;0.80;;;;;;;11.37;95.81;99882.63;5057842;28;20045;-69
2021/10/04 01:59:57;;;;;;;2.40;0.65;;;;;;;11.41;95.63;99882.34;5058029;28;20373;-71
2021/10/04 02:02:24;;;;;;;5.10;0.80;;;;;;;11.44;94.77;99886.59;5058028;28;20053;-70
2021/10/04 02:04:51;;;;;;;4.43;0.80;;;;;;;11.47;94.74;99880.19;5053260;28;20056;-70
2021/10/04 02:07:18;;;;;;;2.30;0.70;;;;;;;11.46;95.49;99882.03;5036578;28;20087;-70
2021/10/04 02:09:47;;;;;;;3.38;0.80;;;;;;;11.49;94.28;99886.31;5037782;28;20048;-70
2021/10/04 02:12:15;;;;;;;1.60;0.57;;;;;;;11.47;94.76;99881.06;5037587;28;20045;-70
2021/10/04 02:14:43;;;;;;;2.97;0.75;;;;;;;11.46;95.01;99900.72;5036682;28;20048;-70
2021/10/04 02:17:10;;;;;;;3.42;0.70;;;;;;;11.46;95.45;99900.72;5020029;28;20347;-71
2021/10/04 02:19:37;;;;;;;3.47;0.85;;;;;;;11.42;95.41;99893.88;5037415;28;20065;-70
2021/10/04 02:22:04;;;;;;;1.52;0.68;;;;;;;11.40;95.32;99893.97;5036259;28;20053;-71
2021/10/04 02:24:31;;;;;;;6.15;0.90;;;;;;;11.44;95.55;99891.09;5037427;28;20068;-71
2021/10/04 02:26:57;;;;;;;3.38;0.80;;;;;;;11.49;94.95;99897.00;5037305;28;20065;-70
2021/10/04 02:29:24;;;;;;;6.13;1.15;;;;;;;11.46;95.02;99886.50;5037292;28;20041;-70
2021/10/04 02:31:51;;;;;;;2.42;0.68;;;;;;;11.49;94.84;99887.13;5037201;28;20053;-70
2021/10/04 02:34:18;;;;;;;5.32;1.08;;;;;;;11.44;95.42;99877.75;5039347;28;20049;-70
2021/10/04 02:36:45;;;;;;;3.25;0.73;;;;;;;11.46;95.53;99879.34;5057143;28;20044;-70
2021/10/04 02:39:11;;;;;;;1.67;0.95;;;;;;;11.35;95.46;99866.72;5056682;28;20040;-70
2021/10/04 02:41:38;;;;;;;5.68;0.70;;;;;;;11.42;95.84;99891.19;5057030;28;20085;-71
2021/10/04 02:44:05;;;;;;;4.60;0.70;;;;;;;11.46;94.99;99895.38;5057020;28;20361;-71
2021/10/04 02:46:32;;;;;;;4.75;1.70;;;;;;;11.51;94.21;99893.22;5055708;28;20108;-71
2021/10/04 02:48:59;;;;;;;3.97;0.63;;;;;;;11.38;94.80;99895.03;5048809;28;20079;-71
2021/10/04 02:51:25;;;;;;;2.53;0.70;;;;;;;11.38;95.58;99897.69;5046322;28;20059;-71
2021/10/04 02:53:52;;;;;;;1.90;0.77;;;;;;;11.41;95.03;99908.19;5056084;28;20103;-70
2021/10/04 02:56:19;;;;;;;2.95;0.60;;;;;;;11.38;95.11;99909.25;5055689;28;20076;-70
2021/10/04 02:58:46;;;;;;;4.28;0.77;;;;;;;11.37;95.51;99906.69;5055649;28;20426;-70
2021/10/04 03:01:13;;;;;;;3.08;0.73;;;;;;;11.33;95.20;99915.88;5054683;28;20099;-71
2021/10/04 03:03:40;;;;;;;1.70;0.57;;;;;;;11.38;94.62;99917.28;5055696;28;20053;-70
2021/10/04 03:06:07;;;;;;;3.40;0.60;;;;;;;11.35;94.73;99924.66;5041952;28;20144;-71
2021/10/04 03:08:34;;;;;;;2.50;0.93;;;;;;;11.35;95.03;99921.97;5035640;28;20045;-70
2021/10/04 03:11:01;;;;;;;3.10;0.63;;;;;;;11.33;95.20;99922.06;5035595;28;20056;-70
2021/10/04 03:13:27;;;;;;;2.10;0.80;;;;;;;11.29;95.13;99925.94;5035726;28;20056;-70
2021/10/04 03:15:54;;;;;;;2.60;0.65;;;;;;;11.26;95.00;99929.66;5034445;28;20390;-70
2021/10/04 03:18:21;;;;;;;1.60;0.60;;;;;;;11.27;95.01;99934.03;5034206;28;20068;-70
2021/10/04 03:20:48;;;;;;;4.28;0.75;;;;;;;11.30;94.82;99937.44;5041357;28;20045;-70
2021/10/04 03:23:16;;;;;;;3.20;0.70;;;;;;;11.30;94.37;99942.81;5037914;28;20053;-70
2021/10/04 03:25:43;;;;;;;2.22;0.60;;;;;;;11.26;94.91;99943.03;5055287;28;20381;-71
2021/10/04 03:28:11;;;;;;;1.98;0.70;;;;;;;11.26;94.57;99944.81;5055115;28;20044;-70
2021/10/04 03:30:38;;;;;;;3.55;0.93;;;;;;;11.23;94.98;99940.53;5055075;28;20354;-69
2021/10/04 03:33:05;;;;;;;4.95;1.15;;;;;;;11.20;94.63;99938.09;5055153;28;20049;-70
2021/10/04 03:35:32;;;;;;;4.30;0.70;;;;;;;11.23;94.72;99947.72;5053931;28;20079;-70
2021/10/04 03:37:59;;;;;;;3.75;0.95;;;;;;;11.27;94.71;99951.88;5054941;28;20049;-71
2021/10/04 03:40:26;;;;;;;4.70;0.90;;;;;;;11.27;94.46;99942.06;5055007;28;20342;-71
2021/10/04 03:42:53;;;;;;;2.55;0.50;;;;;;;11.27;93.74;99949.19;5053083;28;20388;-69
2021/10/04 03:45:20;;;;;;;2.75;0.80;;;;;;;11.24;93.92;99952.94;5053904;28;20453;-70
2021/10/04 03:47:47;;;;;;;2.30;0.65;;;;;;;11.27;93.96;99957.22;4999179;28;1089863;-70
2021/10/04 03:50:16;;;;;;;2.10;0.50;;;;;;;11.19;93.52;99936.38;5035183;28;20122;-70
2021/10/04 03:52:43;;;;;;;2.65;0.50;;;;;;;11.28;93.55;99959.78;5040527;28;20060;-70
2021/10/04 03:55:12;;;;;;;3.38;0.70;;;;;;;11.26;94.26;99959.06;5038555;28;20554;-70
2021/10/04 03:57:41;;;;;;;3.35;0.60;;;;;;;11.18;93.78;99945.34;5056004;28;20381;-69
2021/10/04 04:00:11;;;;;;;1.85;0.75;;;;;;;11.28;93.12;99957.13;5054605;28;20385;-70
2021/10/04 04:02:38;;;;;;;1.10;0.52;;;;;;;11.31;92.99;99960.53;5055638;28;20044;-70
2021/10/04 04:05:06;;;;;;;1.60;0.60;;;;;;;11.25;93.51;99954.66;5054558;28;20049;-70
2021/10/04 04:07:33;;;;;;;3.70;0.68;;;;;;;11.25;93.05;99953.81;5054454;28;20148;-69
2021/10/04 04:10:00;;;;;;;2.97;0.70;;;;;;;11.30;93.18;99954.34;5055492;28;20037;-70
2021/10/04 04:12:26;;;;;;;2.92;0.70;;;;;;;11.24;93.42;99949.41;5054475;28;20059;-71
2021/10/04 04:14:53;;;;;;;4.03;0.80;;;;;;;11.22;93.60;99946.00;5054414;28;20041;-71
2021/10/04 04:17:20;;;;;;;2.70;0.70;;;;;;;11.21;93.21;99950.47;5055822;28;20449;-69
2021/10/04 04:19:47;;;;;;;1.60;0.52;;;;;;;11.20;93.58;99948.78;5055252;28;20041;-70
2021/10/04 04:22:15;;;;;;;7.50;1.00;;;;;;;11.27;92.84;99963.44;5055309;28;20052;-70
2021/10/04 04:24:43;;;;;;;2.30;0.98;;;;;;;11.30;91.95;99961.50;5055135;28;20052;-70
2021/10/04 04:27:10;;;;;;;3.03;0.60;;;;;;;11.30;92.63;99964.16;5055255;28;20548;-70
2021/10/04 04:29:37;;;;;;;1.15;0.40;;;;;;;11.25;92.25;99961.81;5053927;28;20096;-71
2021/10/04 04:32:06;;;;;;;2.47;0.68;;;;;;;11.24;93.30;99965.44;5054727;28;20102;-71
2021/10/04 04:34:33;;;;;;;4.63;0.50;;;;;;;11.26;91.76;99956.38;5032318;28;20048;-71
2021/10/04 04:37:00;;;;;;;1.92;0.77;;;;;;;11.27;91.71;99971.44;5034284;28;20041;-71
2021/10/04 04:39:27;;;;;;;6.07;1.48;;;;;;;11.24;91.63;99968.97;5033696;28;20048;-70
2021/10/04 04:41:54;;;;;;;4.30;0.60;;;;;;;11.25;92.18;99984.06;5035065;28;20049;-70
2021/10/04 04:44:22;;;;;;;2.38;0.60;;;;;;;11.21;92.01;99968.31;5035193;28;20057;-70
2021/10/04 04:46:50;;;;;;;3.03;0.73;;;;;;;11.22;91.84;99965.53;5049268;28;20324;-70
2021/10/04 04:49:18;;;;;;;1.15;0.60;;;;;;;11.30;91.75;99967.72;5054796;28;20048;-70
2021/10/04 04:51:45;;;;;;;3.60;0.80;;;;;;;11.28;91.80;99975.81;5054559;28;20124;-69
2021/10/04 04:54:12;;;;;;;1.80;0.70;;;;;;;11.22;91.74;99968.22;5052762;28;20091;-70
2021/10/04 04:56:39;;;;;;;8.00;0.90;;;;;;;11.19;92.26;99983.59;5054586;28;20041;-69
2021/10/04 04:59:06;;;;;;;3.72;0.85;;;;;;;11.19;92.28;99978.25;5052917;28;20461;-69
2021/10/04 05:01:32;;;;;;;5.63;0.50;;;;;;;11.34;90.96;99981.72;5044785;28;20040;-69
2021/10/04 05:04:00;;;;;;;3.90;0.63;;;;;;;11.18;91.72;99977.41;5049196;28;20059;-69
2021/10/04 05:06:27;;;;;;;4.55;0.80;;;;;;;11.24;91.71;99985.00;5053869;28;20450;-69
2021/10/04 05:08:54;;;;;;;2.78;0.40;;;;;;;11.28;91.19;99989.19;5054574;28;20090;-69
2021/10/04 05:11:20;;;;;;;2.10;0.70;;;;;;;11.26;91.55;99991.09;5054507;28;20037;-69
2021/10/04 05:13:47;;;;;;;2.28;0.82;;;;;;;11.26;91.15;99996.44;5054516;28;20040;-69
2021/10/04 05:16:15;;;;;;;5.35;0.82;;;;;;;11.26;90.82;100004.47;5054494;28;20357;-70
2021/10/04 05:18:42;;;;;;;3.38;0.50;;;;;;;11.25;91.23;100008.09;5054553;28;20162;-70
2021/10/04 05:21:09;;;;;;;3.42;0.80;;;;;;;11.22;91.29;100010.97;5054424;28;20422;-69
2021/10/04 05:23:36;;;;;;;2.72;0.70;;;;;;;11.20;91.77;100007.53;5054675;28;20311;-69
2021/10/04 05:26:03;;;;;;;2.22;0.70;;;;;;;11.24;91.39;100010.88;5054404;28;20052;-69
2021/10/04 05:28:30;;;;;;;4.72;0.90;;;;;;;11.26;91.50;100007.13;5054646;28;20385;-69
2021/10/04 05:30:58;;;;;;;4.82;0.93;;;;;;;11.19;91.92;100010.31;5054493;28;20099;-70
2021/10/04 05:33:24;;;;;;;1.83;0.50;;;;;;;11.19;91.50;100016.53;5054445;28;20353;-69
2021/10/04 05:35:51;;;;;;;6.07;0.70;;;;;;;11.17;91.28;100012.22;5051748;28;20342;-70
2021/10/04 05:38:18;;;;;;;2.28;0.90;;;;;;;11.18;91.48;100033.50;5053288;28;20037;-69
2021/10/04 05:40:45;;;;;;;4.63;0.75;;;;;;;11.20;91.31;100031.59;5054285;28;20488;-72
2021/10/04 05:43:12;;;;;;;3.05;0.93;;;;;;;11.19;90.97;100026.34;5054337;28;20492;-69
2021/10/04 05:45:39;;;;;;;4.05;0.93;;;;;;;11.24;90.97;100035.75;5053248;28;20045;-74
2021/10/04 05:48:06;;;;;;;3.83;0.80;;;;;;;11.24;91.48;100034.91;5047168;28;20049;-70
2021/10/04 05:50:33;;;;;;;3.83;1.00;;;;;;;11.28;90.76;100047.97;5050153;28;20147;-69
2021/10/04 05:52:59;;;;;;;8.40;1.23;;;;;;;11.28;90.85;100063.16;5048659;28;20493;-70
2021/10/04 05:55:26;;;;;;;4.32;0.93;;;;;;;11.26;91.50;100076.59;5049810;28;20095;-69
2021/10/04 05:57:53;;;;;;;1.73;0.80;;;;;;;11.25;91.34;100082.03;5052647;28;20053;-69
2021/10/04 06:00:20;;;;;;;2.97;0.70;;;;;;;11.23;91.51;100094.66;5053818;28;20049;-70
2021/10/04 06:02:47;;;;;;;5.65;1.10;;;;;;;11.29;90.83;100102.28;5052735;28;20043;-71
2021/10/04 06:05:15;;;;;;;3.15;0.60;;;;;;;11.27;90.68;100094.34;5053986;28;20041;-68
2021/10/04 06:07:42;;;;;;;6.68;1.00;;;;;;;11.31;91.15;100099.47;5047699;28;20451;-69
2021/10/04 06:10:11;;;;;;;6.10;0.82;;;;;;;11.32;90.71;100099.38;5060485;28;20048;-72
2021/10/04 06:12:41;;;;;;;2.47;0.60;;;;;;;11.35;90.48;100101.00;5045164;28;20033;-69
2021/10/04 06:15:09;;;;;;;2.73;0.60;;;;;;;11.32;90.85;100095.88;5044575;28;20045;-68
2021/10/04 06:17:36;;;;;;;2.97;0.82;;;;;;;11.37;90.75;100110.63;5051966;28;20049;-68
2021/10/04 06:20:05;;;;;;;4.88;0.93;;;;;;;11.38;91.29;100108.81;5052867;28;20041;-68
2021/10/04 06:22:33;;;;;;;2.10;0.50;;;;;;;11.39;90.73;100106.03;5046252;28;20041;-69
2021/10/04 06:25:00;;;;;;;1.48;0.45;;;;;;;11.42;90.81;100123.69;5049005;28;20060;-68
2021/10/04 06:27:27;;;;;;;1.75;0.52;;;;;;;11.41;90.42;100114.84;5029299;28;20122;-68
2021/10/04 06:29:54;;;;;;;6.00;1.00;;;;;;;11.41;90.75;100111.28;5047057;28;20053;-69
2021/10/04 06:32:21;;;;;;;6.20;0.73;;;;;;;11.39;90.66;100099.84;5043715;28;20041;-69
2021/10/04 06:34:47;;;;;;;1.20;0.60;;;;;;;11.41;91.16;100100.59;5049846;28;20183;-68
2021/10/04 06:37:14;;;;;;;4.97;1.10;;;;;;;11.43;91.10;100090.66;5048381;28;20457;-68
2021/10/04 06:39:41;;;;;;;4.40;1.00;;;;;;;11.45;91.23;100099.44;5054368;28;20052;-68
2021/10/04 06:42:09;;;;;;;2.72;1.00;;;;;;;11.51;90.76;100109.72;5036037;28;20049;-68
2021/10/04 06:44:37;;;;;;;3.85;0.80;;;;;;;11.52;90.19;100106.09;5062669;28;20052;-68
2021/10/04 06:47:04;;;;;;;6.07;0.82;;;;;;;11.56;90.31;100114.78;5062169;28;20049;-68
2021/10/04 06:49:33;;;;;;;2.70;1.02;;;;;;;11.63;90.19;100104.53;5053043;28;20375;-69
2021/10/04 06:52:00;;;;;;;1.75;0.85;;;;;;;11.62;90.08;100102.81;5054744;28;20045;-69
2021/10/04 06:54:27;;;;;;;3.70;0.90;;;;;;;11.65;90.86;100110.63;5036133;28;20099;-69
2021/10/04 06:56:54;;;;;;;3.38;1.02;;;;;;;11.64;90.21;100116.94;5045492;28;20508;-69
2021/10/04 06:59:21;;;;;;;1.80;0.77;;;;;;;11.61;90.36;100117.16;5041984;28;20056;-69
2021/10/04 07:01:48;;;;;;;3.38;0.80;;;;;;;11.63;90.32;100132.13;5056609;28;20045;-69
2021/10/04 07:04:15;;;;;;;2.63;0.90;;;;;;;11.63;90.95;100123.22;5055774;28;20056;-68
2021/10/04 07:06:42;;;;;;;1.90;0.80;;;;;;;11.61;90.74;100125.16;5054948;28;20071;-68
2021/10/04 07:09:09;;;;;;;3.17;0.70;;;;;;;11.63;90.49;100125.91;5056551;28;20041;-69
2021/10/04 07:11:36;;;;;;;6.07;1.10;;;;;;;11.65;90.73;100134.66;5056533;28;20060;-68
2021/10/04 07:14:03;;;;;;;3.97;1.02;;;;;;;11.68;90.80;100137.16;5055495;28;20460;-68
2021/10/04 07:16:30;;;;;;;4.07;0.98;;;;;;;11.67;90.76;100130.94;5055504;28;20041;-69
2021/10/04 07:18:57;;;;;;;3.25;0.95;;;;;;;11.64;91.68;100141.84;5055337;28;20519;-68
2021/10/04 07:21:23;;;;;;;6.65;1.05;;;;;;;11.68;90.84;100137.16;5056277;28;20437;-68
2021/10/04 07:23:50;;;;;;;3.78;0.82;;;;;;;11.68;90.76;100135.31;5056338;28;20045;-68
2021/10/04 07:26:18;;;;;;;4.45;1.40;;;;;;;11.71;90.10;100136.09;5055130;28;20045;-68
2021/10/04 07:28:44;;;;;;;3.00;0.98;;;;;;;11.63;90.41;100133.94;5055294;28;20064;-69
2021/10/04 07:31:12;;;;;;;7.97;1.65;;;;;;;11.67;90.77;100143.47;5056434;28;20064;-68
2021/10/04 07:33:39;;;;;;;3.13;1.00;;;;;;;11.71;90.35;100150.31;5056206;28;20052;-69
2021/10/04 07:36:06;;;;;;;5.65;1.13;;;;;;;11.76;90.47;100140.19;5037807;28;20037;-68
2021/10/04 07:38:35;;;;;;;8.30;1.20;;;;;;;11.81;89.97;100155.91;5051488;28;20049;-68
2021/10/04 07:41:04;;;;;;;3.92;1.05;;;;;;;11.83;89.97;100146.00;5035220;28;20053;-69
2021/10/04 07:43:32;;;;;;;5.25;1.00;;;;;;;11.87;89.45;100144.81;5038768;28;20049;-69
2021/10/04 07:46:02;;;;;;;6.13;0.85;;;;;;;11.91;88.76;100143.66;5048868;28;20046;-70
2021/10/04 07:48:31;;;;;;;2.53;1.30;;;;;;;11.91;89.36;100137.44;5051476;28;20090;-70
2021/10/04 07:50:57;;;;;;;6.45;1.02;;;;;;;11.95;89.38;100141.63;5049260;28;20426;-70
2021/10/04 07:53:25;;;;;;;4.72;0.98;;;;;;;11.95;88.74;100128.25;5051261;28;20409;-72
2021/10/04 07:55:52;;;;;;;5.35;0.95;;;;;;;12.02;88.19;100129.56;5035688;28;20042;-69
2021/10/04 07:58:22;;;;;;;3.63;0.95;;;;;;;11.99;89.34;100124.41;5035703;28;20320;-68
2021/10/04 08:00:49;;;;;;;3.25;1.00;;;;;;;12.03;89.05;100136.66;5039674;28;20040;-68
2021/10/04 08:03:16;;;;;;;5.07;0.85;;;;;;;12.08;89.24;100137.19;5055547;28;20075;-69
2021/10/04 08:05:42;;;;;;;3.90;1.05;;;;;;;12.18;88.11;100147.25;5055611;28;20559;-70
2021/10/04 08:08:09;;;;;;;9.93;1.20;;;;;;;12.17;88.44;100141.06;5055050;28;20041;-68
2021/10/04 08:10:36;;;;;;;5.07;0.90;;;;;;;12.19;87.67;100127.56;5054322;28;20051;-70
2021/10/04 08:13:05;;;;;;;5.47;0.88;;;;;;;12.28;87.70;100148.38;5054917;28;20401;-69
2021/10/04 08:15:32;;;;;;;3.97;1.02;;;;;;;12.26;87.51;100139.56;5054861;28;20342;-69
2021/10/04 08:17:59;;;;;;;6.72;0.88;;;;;;;12.27;87.56;100154.69;5055377;28;20041;-68
2021/10/04 08:20:26;;;;;;;5.43;1.00;;;;;;;12.25;87.52;100145.03;5050352;28;20041;-68
2021/10/04 08:22:53;;;;;;;4.10;0.98;;;;;;;12.17;88.83;100134.84;5034375;28;20403;-70
2021/10/04 08:25:21;;;;;;;4.03;0.88;;;;;;;12.34;88.84;100155.97;5045253;28;20052;-70
2021/10/04 08:27:48;;;;;;;5.88;0.90;;;;;;;12.36;88.42;100134.44;5055126;28;20048;-69
2021/10/04 08:30:16;;;;;;;5.57;1.25;;;;;;;12.41;87.38;100144.84;5061559;28;20041;-68
2021/10/04 08:32:42;;;;;;;7.63;1.02;;;;;;;12.37;88.08;100136.16;5062827;28;20064;-69
2021/10/04 08:35:09;;;;;;;5.30;1.15;;;;;;;12.43;86.34;100127.69;5049018;28;20049;-69
2021/10/04 08:37:36;;;;;;;4.75;1.08;;;;;;;12.48;86.51;100151.50;5035086;28;20328;-69
2021/10/04 08:40:08;;;;;;;3.17;0.88;;;;;;;12.50;86.18;100145.03;5035243;28;20052;-69
2021/10/04 08:42:35;;;;;;;2.97;0.98;;;;;;;12.55;86.03;100158.13;5034155;28;20133;-69
2021/10/04 08:45:02;;;;;;;3.53;0.90;;;;;;;12.57;85.64;100156.19;5036104;28;20509;-68
2021/10/04 08:47:30;;;;;;;4.45;0.85;;;;;;;12.59;85.76;100162.28;5051436;28;20053;-68
2021/10/04 08:49:57;;;;;;;5.32;1.52;;;;;;;12.54;85.75;100152.88;5033857;28;20056;-70
2021/10/04 08:52:24;;;;;;;12.90;1.30;;;;;;;12.50;86.48;100162.94;5033790;28;20046;-69
2021/10/04 08:54:51;;;;;;;3.03;0.93;;;;;;;12.53;86.29;100169.91;5034983;28;20096;-70
2021/10/04 08:57:18;;;;;;;4.22;1.00;;;;;;;12.50;85.97;100166.44;5034843;28;20038;-70
2021/10/04 08:59:44;;;;;;;4.57;0.77;;;;;;;12.48;85.76;100181.78;5043964;28;20052;-70
2021/10/04 09:02:31;;;;;;;5.32;1.05;;;;;;;12.45;86.07;100183.81;5053676;28;20045;-69
2021/10/04 09:05:11;;;;;;;4.15;0.90;;;;;;;12.47;86.89;100180.06;5054900;28;20045;-69
2021/10/04 09:07:46;;;;;;;8.67;1.43;;;;;;;12.51;86.45;100183.38;5053400;28;20041;-69
2021/10/04 09:10:18;;;;;;;4.60;1.00;;;;;;;12.59;86.42;100178.34;5054734;28;20044;-69
2021/10/04 09:12:50;;;;;;;5.25;0.90;;;;;;;12.74;86.71;100181.78;5054742;28;20044;-69
2021/10/04 09:15:30;;;;;;;6.70;0.90;;;;;;;12.87;86.43;100180.94;5070077;28;20438;-69
2021/10/04 09:18:00;;;;;;;3.07;0.80;;;;;;;12.93;86.44;100185.88;5054276;28;20079;-70
2021/10/04 09:20:55;;;;;;;4.88;0.82;;;;;;;12.95;86.20;100185.72;5054458;28;20396;-69
2021/10/04 09:23:31;;;;;;;3.80;1.10;;;;;;;12.93;86.45;100174.28;5054469;28;20045;-70
2021/10/04 09:26:02;;;;;;;9.50;1.98;;;;;;;12.88;85.76;100178.16;5053643;28;20053;-70
2021/10/04 09:28:36;;;;;;;2.60;0.90;;;;;;;12.87;85.66;100183.63;5053774;28;20044;-69
2021/10/04 09:31:18;;;;;;;2.97;0.85;;;;;;;12.87;86.06;100187.13;5054701;28;20381;-69
2021/10/04 09:34:19;;;;;;;4.82;1.20;;;;;;;12.95;84.99;100180.38;5054233;28;20076;-69
2021/10/04 09:36:53;;;;;;;7.43;1.10;;;;;;;13.11;83.15;100174.78;5022904;28;20458;-73
2021/10/04 09:39:22;;;;;;;11.25;1.10;;;;;;;13.39;85.17;100173.66;5034417;28;20049;-69
2021/10/04 09:42:17;;;;;;;5.28;0.95;;;;;;;13.47;84.05;100177.63;5038287;28;20037;-69
2021/10/04 09:44:49;;;;;;;4.32;0.80;;;;;;;13.64;82.98;100173.72;5037615;28;20054;-69
2021/10/04 09:47:27;;;;;;;2.72;1.00;;;;;;;13.80;82.34;100174.31;5045706;28;20061;-69
2021/10/04 09:50:08;;;;;;;6.75;1.10;;;;;;;13.95;81.15;100174.13;5038176;28;20054;-69
2021/10/04 09:52:54;;;;;;;6.63;1.10;;;;;;;14.00;79.97;100171.91;5057116;28;20044;-69
2021/10/04 09:55:32;;;;;;;3.78;0.90;;;;;;;13.99;79.63;100173.75;5058112;28;20053;-69
2021/10/04 09:58:03;;;;;;;2.28;0.90;;;;;;;13.87;81.32;100174.69;5057535;28;20087;-70
2021/10/04 10:00:39;;;;;;;4.00;0.98;;;;;;;13.68;80.53;100178.72;5056237;28;20465;-70
2021/10/04 10:03:08;;;;;;;2.97;0.80;;;;;;;13.55;79.28;100186.84;5056763;28;20510;-70
2021/10/04 10:05:37;;;;;;;4.80;0.65;;;;;;;13.49;80.10;100197.13;5057786;28;20048;-69
2021/10/04 10:08:05;;;;;;;7.78;1.27;;;;;;;13.42;80.88;100194.03;5057639;28;20049;-69
2021/10/04 10:10:40;;;;;;;3.30;1.00;;;;;;;13.35;80.75;100188.25;5057422;28;20053;-70
2021/10/04 10:13:08;;;;;;;5.30;1.10;;;;;;;13.39;80.81;100192.41;5057772;28;20048;-69
2021/10/04 10:15:36;;;;;;;10.23;1.05;;;;;;;13.42;80.96;100188.66;5057497;28;20049;-70
2021/10/04 10:18:23;;;;;;;6.85;1.23;;;;;;;13.49;81.17;100192.66;5057691;28;20128;-70
2021/10/04 10:20:56;;;;;;;5.07;1.10;;;;;;;13.49;80.85;100189.97;5057648;28;20422;-68
2021/10/04 10:24:02;;;;;;;4.13;0.80;;;;;;;13.52;82.22;100200.44;5057577;28;20037;-68
2021/10/04 10:26:39;;;;;;;3.33;0.90;;;;;;;13.51;82.10;100192.53;5015531;28;20085;-68
2021/10/04 10:29:09;;;;;;;5.63;1.00;;;;;;;13.51;79.92;100184.50;5015686;28;20042;-68
2021/10/04 10:31:48;;;;;;;5.20;1.10;;;;;;;13.50;79.80;100178.25;5039862;28;20099;-69
2021/10/04 10:34:33;;;;;;;3.45;1.00;;;;;;;13.69;80.31;100193.00;5053228;28;20075;-72
2021/10/04 10:37:08;;;;;;;6.47;1.05;;;;;;;14.05;79.58;100188.53;5055019;28;20066;-68
2021/10/04 10:39:43;;;;;;;3.53;0.98;;;;;;;14.35;78.64;100186.31;5053057;28;20036;-68
2021/10/04 10:42:31;;;;;;;7.13;1.20;;;;;;;14.70;77.91;100182.72;5054865;28;20438;-72
2021/10/04 10:45:02;;;;;;;5.25;1.17;;;;;;;15.02;75.31;100171.31;5055264;28;20045;-76
2021/10/04 10:47:38;;;;;;;3.42;1.00;;;;;;;15.31;74.51;100170.78;5055198;28;20059;-68
2021/10/04 10:50:08;;;;;;;3.30;1.05;;;;;;;15.38;69.97;100181.91;5034963;28;20072;-73
2021/10/04 10:52:46;;;;;;;6.97;1.00;;;;;;;15.47;69.54;100175.78;5036104;28;20043;-70
2021/10/04 10:55:19;;;;;;;8.52;1.00;;;;;;;15.71;69.98;100177.47;5053748;28;20041;-69
2021/10/04 10:57:52;;;;;;;6.50;1.48;;;;;;;15.66;68.04;100176.09;5057304;28;20072;-69
2021/10/04 11:00:24;;;;;;;3.50;1.00;;;;;;;15.87;68.36;100177.00;5064414;28;20123;-70
2021/10/04 11:03:01;;;;;;;6.88;1.27;;;;;;;15.99;66.93;100174.31;5058734;28;20102;-69
2021/10/04 11:05:37;;;;;;;3.60;1.02;;;;;;;16.06;67.88;100170.13;5055973;28;20052;-70
2021/10/04 11:08:09;;;;;;;6.03;1.00;;;;;;;16.31;68.62;100168.06;5055020;28;20049;-69
2021/10/04 11:10:56;;;;;;;2.50;0.75;;;;;;;16.39;64.89;100176.31;5055086;28;20049;-69
2021/10/04 11:13:26;;;;;;;4.00;1.00;;;;;;;16.62;66.08;100164.56;5055153;28;20063;-69
2021/10/04 11:15:55;;;;;;;;;;;;;;;16.73;65.57;100160.94;5055099;28;20120;-70
2021/10/04 11:18:23;;;;;;;4.68;0.98;;;;;;;16.87;64.08;100165.97;5054446;28;19924;-70
2021/10/04 11:21:05;;;;;;;11.95;0.98;;;;;;;16.96;65.40;100162.44;5054361;28;20094;-70
2021/10/04 11:23:32;;;;;;;6.05;0.93;;;;;;;17.12;63.78;100153.03;5053668;28;20064;-70
2021/10/04 11:25:59;;;;;;;4.20;0.90;;;;;;;17.17;60.63;100150.78;5055099;28;20131;-70
2021/10/04 11:28:32;;;;;;;7.80;1.05;;;;;;;17.26;60.15;100154.50;5055576;28;20045;-70
2021/10/04 11:31:07;;;;;;;4.75;0.90;;;;;;;17.38;59.90;100153.41;5056158;28;20457;-69
2021/10/04 11:33:50;;;;;;;2.63;0.80;;;;;;;17.29;57.90;100151.53;5053643;28;20052;-69
2021/10/04 11:36:19;;;;;;;5.53;0.85;;;;;;;17.19;57.37;100158.72;5034850;28;20122;-69
2021/10/04 11:38:50;;;;;;;5.78;1.13;;;;;;;17.40;59.49;100158.66;5035829;28;20390;-70